sensor_id;sensor_type;location;lat;lon;timestamp;temperature;humidity
70246;SHT30;57637;49.272;8.590;2023-09-19T00:01:12;16.73;88.45
70246;SHT30;57637;49.272;8.590;2023-09-19T00:03:40;16.70;88.51
70246;SHT30;57637;49.272;8.590;2023-09-19T00:06:07;16.73;88.54
70246;SHT30;57637;49.272;8.590;2023-09-19T00:08:33;16.70;88.65
70246;SHT30;57637;49.272;8.590;2023-09-19T00:10:59;16.66;88.65
70246;SHT30;57637;49.272;8.590;2023-09-19T00:13:29;16.66;88.77
70246;SHT30;57637;49.272;8.590;2023-09-19T00:15:55;16.66;88.79
70246;SHT30;57637;49.272;8.590;2023-09-19T00:18:24;16.69;88.84
70246;SHT30;57637;49.272;8.590;2023-09-19T00:20:56;16.72;88.81
70246;SHT30;57637;49.272;8.590;2023-09-19T00:23:22;16.70;88.81
70246;SHT30;57637;49.272;8.590;2023-09-19T00:25:48;16.72;88.85
70246;SHT30;57637;49.272;8.590;2023-09-19T00:28:13;16.70;88.87
70246;SHT30;57637;49.272;8.590;2023-09-19T00:30:42;16.69;88.92
70246;SHT30;57637;49.272;8.590;2023-09-19T00:33:08;16.67;88.94
70246;SHT30;57637;49.272;8.590;2023-09-19T00:35:33;16.59;89.03
70246;SHT30;57637;49.272;8.590;2023-09-19T00:37:59;16.60;89.15
70246;SHT30;57637;49.272;8.590;2023-09-19T00:40:24;16.57;89.23
70246;SHT30;57637;49.272;8.590;2023-09-19T00:42:51;16.57;89.28
70246;SHT30;57637;49.272;8.590;2023-09-19T00:45:17;16.59;89.29
70246;SHT30;57637;49.272;8.590;2023-09-19T00:47:49;16.56;89.38
70246;SHT30;57637;49.272;8.590;2023-09-19T00:50:17;16.52;89.46
70246;SHT30;57637;49.272;8.590;2023-09-19T00:52:47;16.53;89.54
70246;SHT30;57637;49.272;8.590;2023-09-19T00:55:15;16.52;89.51
70246;SHT30;57637;49.272;8.590;2023-09-19T00:57:43;16.52;89.56
70246;SHT30;57637;49.272;8.590;2023-09-19T01:00:09;16.48;89.65
70246;SHT30;57637;49.272;8.590;2023-09-19T01:02:43;16.48;89.69
70246;SHT30;57637;49.272;8.590;2023-09-19T01:05:10;16.45;89.68
70246;SHT30;57637;49.272;8.590;2023-09-19T01:07:35;16.45;89.75
70246;SHT30;57637;49.272;8.590;2023-09-19T01:10:04;16.43;89.73
70246;SHT30;57637;49.272;8.590;2023-09-19T01:18:00;16.48;89.74
70246;SHT30;57637;49.272;8.590;2023-09-19T01:32:01;16.45;89.44
70246;SHT30;57637;49.272;8.590;2023-09-19T01:37:15;16.39;89.43
70246;SHT30;57637;49.272;8.590;2023-09-19T01:40:09;16.36;89.48
70246;SHT30;57637;49.272;8.590;2023-09-19T01:50:44;16.32;89.37
70246;SHT30;57637;49.272;8.590;2023-09-19T01:53:27;16.30;89.36
70246;SHT30;57637;49.272;8.590;2023-09-19T01:55:58;16.32;89.43
70246;SHT30;57637;49.272;8.590;2023-09-19T01:58:37;16.32;89.50
70246;SHT30;57637;49.272;8.590;2023-09-19T02:01:08;16.33;89.54
70246;SHT30;57637;49.272;8.590;2023-09-19T02:03:38;16.36;89.49
70246;SHT30;57637;49.272;8.590;2023-09-19T02:06:04;16.36;89.48
70246;SHT30;57637;49.272;8.590;2023-09-19T02:08:30;16.38;89.38
70246;SHT30;57637;49.272;8.590;2023-09-19T02:10:58;16.42;89.34
70246;SHT30;57637;49.272;8.590;2023-09-19T02:13:24;16.49;89.28
70246;SHT30;57637;49.272;8.590;2023-09-19T02:15:50;16.52;89.26
70246;SHT30;57637;49.272;8.590;2023-09-19T02:18:16;16.52;89.22
70246;SHT30;57637;49.272;8.590;2023-09-19T02:20:42;16.57;89.19
70246;SHT30;57637;49.272;8.590;2023-09-19T02:23:07;16.57;89.17
70246;SHT30;57637;49.272;8.590;2023-09-19T02:25:33;16.62;89.11
70246;SHT30;57637;49.272;8.590;2023-09-19T02:28:00;16.64;89.09
70246;SHT30;57637;49.272;8.590;2023-09-19T02:30:28;16.63;89.07
70246;SHT30;57637;49.272;8.590;2023-09-19T02:32:53;16.64;89.09
70246;SHT30;57637;49.272;8.590;2023-09-19T02:35:19;16.66;89.02
70246;SHT30;57637;49.272;8.590;2023-09-19T02:37:45;16.64;89.02
70246;SHT30;57637;49.272;8.590;2023-09-19T02:40:11;16.69;89.01
70246;SHT30;57637;49.272;8.590;2023-09-19T02:42:53;16.72;89.03
70246;SHT30;57637;49.272;8.590;2023-09-19T02:45:19;16.69;89.03
70246;SHT30;57637;49.272;8.590;2023-09-19T02:47:45;16.69;89.09
70246;SHT30;57637;49.272;8.590;2023-09-19T02:50:11;16.69;89.12
70246;SHT30;57637;49.272;8.590;2023-09-19T02:52:37;16.70;89.12
70246;SHT30;57637;49.272;8.590;2023-09-19T02:55:03;16.70;89.18
70246;SHT30;57637;49.272;8.590;2023-09-19T02:57:31;16.73;89.12
70246;SHT30;57637;49.272;8.590;2023-09-19T02:59:58;16.74;89.11
70246;SHT30;57637;49.272;8.590;2023-09-19T03:02:26;16.74;89.11
70246;SHT30;57637;49.272;8.590;2023-09-19T03:04:52;16.73;89.08
70246;SHT30;57637;49.272;8.590;2023-09-19T03:07:18;16.74;89.06
70246;SHT30;57637;49.272;8.590;2023-09-19T03:09:44;16.73;89.09
70246;SHT30;57637;49.272;8.590;2023-09-19T03:12:10;16.69;89.08
70246;SHT30;57637;49.272;8.590;2023-09-19T03:14:35;16.66;89.04
70246;SHT30;57637;49.272;8.590;2023-09-19T03:17:01;16.57;89.09
70246;SHT30;57637;49.272;8.590;2023-09-19T03:19:30;16.52;89.19
70246;SHT30;57637;49.272;8.590;2023-09-19T03:21:58;16.51;89.29
70246;SHT30;57637;49.272;8.590;2023-09-19T03:24:23;16.45;89.29
70246;SHT30;57637;49.272;8.590;2023-09-19T03:26:49;16.43;89.33
70246;SHT30;57637;49.272;8.590;2023-09-19T03:29:14;16.39;89.36
70246;SHT30;57637;49.272;8.590;2023-09-19T03:31:40;16.39;89.38
70246;SHT30;57637;49.272;8.590;2023-09-19T03:34:06;16.38;89.41
70246;SHT30;57637;49.272;8.590;2023-09-19T03:36:34;16.36;89.42
70246;SHT30;57637;49.272;8.590;2023-09-19T03:39:00;16.34;89.39
70246;SHT30;57637;49.272;8.590;2023-09-19T03:41:26;16.32;89.46
70246;SHT30;57637;49.272;8.590;2023-09-19T03:43:52;16.34;89.44
70246;SHT30;57637;49.272;8.590;2023-09-19T03:46:18;16.34;89.40
70246;SHT30;57637;49.272;8.590;2023-09-19T03:48:43;16.33;89.41
70246;SHT30;57637;49.272;8.590;2023-09-19T03:51:09;16.32;89.46
70246;SHT30;57637;49.272;8.590;2023-09-19T03:53:34;16.30;89.52
70246;SHT30;57637;49.272;8.590;2023-09-19T03:56:00;16.33;89.52
70246;SHT30;57637;49.272;8.590;2023-09-19T03:58:26;16.33;89.51
70246;SHT30;57637;49.272;8.590;2023-09-19T04:00:54;16.34;89.46
70246;SHT30;57637;49.272;8.590;2023-09-19T04:03:20;16.32;89.43
70246;SHT30;57637;49.272;8.590;2023-09-19T04:05:46;16.33;89.41
70246;SHT30;57637;49.272;8.590;2023-09-19T04:08:15;16.34;89.52
70246;SHT30;57637;49.272;8.590;2023-09-19T04:10:43;16.32;89.45
70246;SHT30;57637;49.272;8.590;2023-09-19T04:13:10;16.30;89.46
70246;SHT30;57637;49.272;8.590;2023-09-19T04:15:36;16.28;89.44
70246;SHT30;57637;49.272;8.590;2023-09-19T04:18:02;16.22;89.43
70246;SHT30;57637;49.272;8.590;2023-09-19T04:20:28;16.18;89.42
70246;SHT30;57637;49.272;8.590;2023-09-19T04:22:54;16.16;89.41
70246;SHT30;57637;49.272;8.590;2023-09-19T04:25:19;16.13;89.46
70246;SHT30;57637;49.272;8.590;2023-09-19T04:27:45;16.11;89.43
70246;SHT30;57637;49.272;8.590;2023-09-19T04:30:11;16.05;89.55
70246;SHT30;57637;49.272;8.590;2023-09-19T04:32:40;16.01;89.57
70246;SHT30;57637;49.272;8.590;2023-09-19T04:35:07;16.00;89.62
70246;SHT30;57637;49.272;8.590;2023-09-19T04:37:35;15.94;89.68
70246;SHT30;57637;49.272;8.590;2023-09-19T04:40:03;15.91;89.77
70246;SHT30;57637;49.272;8.590;2023-09-19T04:42:31;15.90;89.86
70246;SHT30;57637;49.272;8.590;2023-09-19T04:44:56;15.88;89.88
70246;SHT30;57637;49.272;8.590;2023-09-19T04:47:21;15.87;89.87
70246;SHT30;57637;49.272;8.590;2023-09-19T04:49:47;15.81;89.89
70246;SHT30;57637;49.272;8.590;2023-09-19T04:52:13;15.81;89.95
70246;SHT30;57637;49.272;8.590;2023-09-19T04:54:40;15.80;90.02
70246;SHT30;57637;49.272;8.590;2023-09-19T04:57:06;15.82;89.98
70246;SHT30;57637;49.272;8.590;2023-09-19T04:59:32;15.75;90.06
70246;SHT30;57637;49.272;8.590;2023-09-19T05:01:58;15.77;90.01
70246;SHT30;57637;49.272;8.590;2023-09-19T05:04:23;15.81;90.15
70246;SHT30;57637;49.272;8.590;2023-09-19T05:06:49;15.75;90.01
70246;SHT30;57637;49.272;8.590;2023-09-19T05:09:14;15.75;90.02
70246;SHT30;57637;49.272;8.590;2023-09-19T05:11:40;15.74;90.04
70246;SHT30;57637;49.272;8.590;2023-09-19T05:14:06;15.74;90.09
70246;SHT30;57637;49.272;8.590;2023-09-19T05:16:31;15.77;90.02
70246;SHT30;57637;49.272;8.590;2023-09-19T05:18:57;15.78;89.91
70246;SHT30;57637;49.272;8.590;2023-09-19T05:21:25;15.84;89.89
70246;SHT30;57637;49.272;8.590;2023-09-19T05:23:53;15.90;89.72
70246;SHT30;57637;49.272;8.590;2023-09-19T05:26:19;15.92;89.56
70246;SHT30;57637;49.272;8.590;2023-09-19T05:28:44;15.97;89.46
70246;SHT30;57637;49.272;8.590;2023-09-19T05:31:10;16.02;89.35
70246;SHT30;57637;49.272;8.590;2023-09-19T05:33:35;16.06;89.28
70246;SHT30;57637;49.272;8.590;2023-09-19T05:36:00;16.12;89.21
70246;SHT30;57637;49.272;8.590;2023-09-19T05:38:26;16.16;89.11
70246;SHT30;57637;49.272;8.590;2023-09-19T05:40:51;16.28;88.98
70246;SHT30;57637;49.272;8.590;2023-09-19T05:43:16;16.32;88.96
70246;SHT30;57637;49.272;8.590;2023-09-19T05:45:43;16.34;88.87
70246;SHT30;57637;49.272;8.590;2023-09-19T05:48:10;16.38;88.75
70246;SHT30;57637;49.272;8.590;2023-09-19T05:50:38;16.42;88.58
70246;SHT30;57637;49.272;8.590;2023-09-19T05:53:04;16.46;88.40
70246;SHT30;57637;49.272;8.590;2023-09-19T05:55:30;16.57;88.12
70246;SHT30;57637;49.272;8.590;2023-09-19T05:57:55;16.64;87.71
70246;SHT30;57637;49.272;8.590;2023-09-19T06:00:21;16.73;87.30
70246;SHT30;57637;49.272;8.590;2023-09-19T06:02:51;16.83;86.80
70246;SHT30;57637;49.272;8.590;2023-09-19T06:05:20;16.88;86.06
70246;SHT30;57637;49.272;8.590;2023-09-19T06:07:46;17.06;85.59
70246;SHT30;57637;49.272;8.590;2023-09-19T06:10:12;17.27;85.17
70246;SHT30;57637;49.272;8.590;2023-09-19T06:12:40;17.46;84.76
70246;SHT30;57637;49.272;8.590;2023-09-19T06:15:06;17.66;84.06
70246;SHT30;57637;49.272;8.590;2023-09-19T06:17:34;17.76;83.70
70246;SHT30;57637;49.272;8.590;2023-09-19T06:20:03;17.78;83.45
70246;SHT30;57637;49.272;8.590;2023-09-19T06:22:34;17.79;83.43
70246;SHT30;57637;49.272;8.590;2023-09-19T06:25:01;17.88;83.41
70246;SHT30;57637;49.272;8.590;2023-09-19T06:27:27;17.93;83.21
70246;SHT30;57637;49.272;8.590;2023-09-19T06:29:52;18.00;82.80
70246;SHT30;57637;49.272;8.590;2023-09-19T06:32:18;18.09;82.42
70246;SHT30;57637;49.272;8.590;2023-09-19T06:34:43;18.13;82.35
70246;SHT30;57637;49.272;8.590;2023-09-19T06:37:08;18.09;81.85
70246;SHT30;57637;49.272;8.590;2023-09-19T06:39:34;18.20;81.58
70246;SHT30;57637;49.272;8.590;2023-09-19T06:41:59;18.17;81.66
70246;SHT30;57637;49.272;8.590;2023-09-19T06:44:26;18.16;81.91
70246;SHT30;57637;49.272;8.590;2023-09-19T06:46:54;18.17;82.61
70246;SHT30;57637;49.272;8.590;2023-09-19T06:49:20;18.20;82.74
70246;SHT30;57637;49.272;8.590;2023-09-19T06:51:45;18.27;82.35
70246;SHT30;57637;49.272;8.590;2023-09-19T06:54:11;18.36;82.53
70246;SHT30;57637;49.272;8.590;2023-09-19T06:56:36;18.39;82.56
70246;SHT30;57637;49.272;8.590;2023-09-19T06:59:01;18.56;82.69
70246;SHT30;57637;49.272;8.590;2023-09-19T07:01:28;19.00;80.17
70246;SHT30;57637;49.272;8.590;2023-09-19T07:03:54;19.04;80.35
70246;SHT30;57637;49.272;8.590;2023-09-19T07:06:19;19.04;80.50
70246;SHT30;57637;49.272;8.590;2023-09-19T07:08:45;19.14;80.17
70246;SHT30;57637;49.272;8.590;2023-09-19T07:11:10;19.19;79.38
70246;SHT30;57637;49.272;8.590;2023-09-19T07:13:37;19.29;78.34
70246;SHT30;57637;49.272;8.590;2023-09-19T07:16:03;19.41;78.61
70246;SHT30;57637;49.272;8.590;2023-09-19T07:18:29;19.63;77.10
70246;SHT30;57637;49.272;8.590;2023-09-19T07:20:56;19.67;77.56
70246;SHT30;57637;49.272;8.590;2023-09-19T07:23:26;19.79;77.64
70246;SHT30;57637;49.272;8.590;2023-09-19T07:25:52;19.89;77.20
70246;SHT30;57637;49.272;8.590;2023-09-19T07:28:21;19.97;76.36
70246;SHT30;57637;49.272;8.590;2023-09-19T07:30:47;19.97;75.99
70246;SHT30;57637;49.272;8.590;2023-09-19T07:33:13;20.01;76.11
70246;SHT30;57637;49.272;8.590;2023-09-19T07:35:39;19.97;75.41
70246;SHT30;57637;49.272;8.590;2023-09-19T07:38:07;20.13;75.41
70246;SHT30;57637;49.272;8.590;2023-09-19T07:40:33;20.44;74.84
70246;SHT30;57637;49.272;8.590;2023-09-19T07:42:58;20.47;75.05
70246;SHT30;57637;49.272;8.590;2023-09-19T07:45:27;20.57;73.17
70246;SHT30;57637;49.272;8.590;2023-09-19T07:47:55;20.82;73.55
70246;SHT30;57637;49.272;8.590;2023-09-19T07:50:20;21.03;72.32
70246;SHT30;57637;49.272;8.590;2023-09-19T07:52:46;21.09;71.65
70246;SHT30;57637;49.272;8.590;2023-09-19T07:55:13;21.16;70.98
70246;SHT30;57637;49.272;8.590;2023-09-19T07:57:45;21.32;71.42
70246;SHT30;57637;49.272;8.590;2023-09-19T08:00:11;21.25;70.31
70246;SHT30;57637;49.272;8.590;2023-09-19T08:02:38;21.25;71.00
70246;SHT30;57637;49.272;8.590;2023-09-19T08:05:05;21.18;69.46
70246;SHT30;57637;49.272;8.590;2023-09-19T08:07:32;21.16;70.10
70246;SHT30;57637;49.272;8.590;2023-09-19T08:09:57;21.22;70.13
70246;SHT30;57637;49.272;8.590;2023-09-19T08:12:24;21.27;69.02
70246;SHT30;57637;49.272;8.590;2023-09-19T08:14:49;21.45;69.44
70246;SHT30;57637;49.272;8.590;2023-09-19T08:17:15;21.27;68.49
70246;SHT30;57637;49.272;8.590;2023-09-19T08:19:40;20.84;68.46
70246;SHT30;57637;49.272;8.590;2023-09-19T08:22:07;21.49;69.08
70246;SHT30;57637;49.272;8.590;2023-09-19T08:24:35;21.63;68.92
70246;SHT30;57637;49.272;8.590;2023-09-19T08:27:01;21.45;68.82
70246;SHT30;57637;49.272;8.590;2023-09-19T08:29:29;21.39;69.06
70246;SHT30;57637;49.272;8.590;2023-09-19T08:31:55;21.08;67.97
70246;SHT30;57637;49.272;8.590;2023-09-19T08:34:22;21.23;68.52
70246;SHT30;57637;49.272;8.590;2023-09-19T08:36:50;21.40;68.49
70246;SHT30;57637;49.272;8.590;2023-09-19T08:39:17;21.68;67.49
70246;SHT30;57637;49.272;8.590;2023-09-19T08:41:44;21.40;67.21
70246;SHT30;57637;49.272;8.590;2023-09-19T08:44:10;21.10;67.93
70246;SHT30;57637;49.272;8.590;2023-09-19T08:46:35;21.13;67.03
70246;SHT30;57637;49.272;8.590;2023-09-19T08:49:08;20.61;67.72
70246;SHT30;57637;49.272;8.590;2023-09-19T08:51:47;20.89;67.60
70246;SHT30;57637;49.272;8.590;2023-09-19T08:54:26;21.02;67.64
70246;SHT30;57637;49.272;8.590;2023-09-19T08:56:56;21.40;65.87
70246;SHT30;57637;49.272;8.590;2023-09-19T08:59:35;21.25;63.22
70246;SHT30;57637;49.272;8.590;2023-09-19T09:02:03;21.30;64.08
70246;SHT30;57637;49.272;8.590;2023-09-19T09:04:29;21.49;62.77
70246;SHT30;57637;49.272;8.590;2023-09-19T09:06:56;21.19;62.80
70246;SHT30;57637;49.272;8.590;2023-09-19T09:09:23;21.22;63.09
70246;SHT30;57637;49.272;8.590;2023-09-19T09:11:48;21.40;63.07
70246;SHT30;57637;49.272;8.590;2023-09-19T09:14:18;21.54;63.11
70246;SHT30;57637;49.272;8.590;2023-09-19T09:16:44;21.88;61.47
70246;SHT30;57637;49.272;8.590;2023-09-19T09:19:10;21.91;60.67
70246;SHT30;57637;49.272;8.590;2023-09-19T09:21:38;21.87;60.80
70246;SHT30;57637;49.272;8.590;2023-09-19T09:26:55;22.00;59.74
70246;SHT30;57637;49.272;8.590;2023-09-19T09:32:27;22.35;58.80
70246;SHT30;57637;49.272;8.590;2023-09-19T09:35:02;22.02;59.63
70246;SHT30;57637;49.272;8.590;2023-09-19T09:37:34;22.18;58.46
70246;SHT30;57637;49.272;8.590;2023-09-19T09:40:03;22.34;59.91
70246;SHT30;57637;49.272;8.590;2023-09-19T09:42:50;22.04;59.51
70246;SHT30;57637;49.272;8.590;2023-09-19T09:45:23;22.05;57.70
70246;SHT30;57637;49.272;8.590;2023-09-19T09:47:58;22.08;59.46
70246;SHT30;57637;49.272;8.590;2023-09-19T09:50:34;22.28;59.38
70246;SHT30;57637;49.272;8.590;2023-09-19T09:53:25;22.62;58.88
70246;SHT30;57637;49.272;8.590;2023-09-19T09:56:04;22.55;57.83
70246;SHT30;57637;49.272;8.590;2023-09-19T09:58:38;22.28;58.41
70246;SHT30;57637;49.272;8.590;2023-09-19T10:01:17;22.66;58.09
70246;SHT30;57637;49.272;8.590;2023-09-19T10:03:43;22.93;57.53
70246;SHT30;57637;49.272;8.590;2023-09-19T10:06:12;23.24;58.03
70246;SHT30;57637;49.272;8.590;2023-09-19T10:14:20;22.42;55.87
70246;SHT30;57637;49.272;8.590;2023-09-19T10:16:49;22.82;56.88
70246;SHT30;57637;49.272;8.590;2023-09-19T10:19:54;22.55;56.56
70246;SHT30;57637;49.272;8.590;2023-09-19T10:22:13;22.69;55.96
70246;SHT30;57637;49.272;8.590;2023-09-19T10:24:45;22.41;56.38
70246;SHT30;57637;49.272;8.590;2023-09-19T10:27:12;22.52;55.61
70246;SHT30;57637;49.272;8.590;2023-09-19T10:29:41;22.05;57.16
70246;SHT30;57637;49.272;8.590;2023-09-19T10:32:09;22.45;56.30
70246;SHT30;57637;49.272;8.590;2023-09-19T10:34:44;22.90;57.09
70246;SHT30;57637;49.272;8.590;2023-09-19T10:37:12;22.52;56.24
70246;SHT30;57637;49.272;8.590;2023-09-19T10:39:39;22.51;57.31
70246;SHT30;57637;49.272;8.590;2023-09-19T10:42:05;22.68;57.00
70246;SHT30;57637;49.272;8.590;2023-09-19T10:44:34;22.81;56.57
70246;SHT30;57637;49.272;8.590;2023-09-19T10:47:08;22.65;56.82
70246;SHT30;57637;49.272;8.590;2023-09-19T10:49:35;22.61;55.55
70246;SHT30;57637;49.272;8.590;2023-09-19T10:52:00;22.05;58.16
70246;SHT30;57637;49.272;8.590;2023-09-19T10:54:31;22.10;57.28
70246;SHT30;57637;49.272;8.590;2023-09-19T10:56:59;22.02;56.79
70246;SHT30;57637;49.272;8.590;2023-09-19T10:59:25;22.37;56.73
70246;SHT30;57637;49.272;8.590;2023-09-19T11:01:59;22.38;56.65
70246;SHT30;57637;49.272;8.590;2023-09-19T11:04:40;22.75;56.23
70246;SHT30;57637;49.272;8.590;2023-09-19T11:07:09;22.90;55.62
70246;SHT30;57637;49.272;8.590;2023-09-19T11:12:08;22.65;55.49
70246;SHT30;57637;49.272;8.590;2023-09-19T11:14:37;22.73;55.55
70246;SHT30;57637;49.272;8.590;2023-09-19T11:30:49;23.50;53.03
70246;SHT30;57637;49.272;8.590;2023-09-19T11:33:18;23.58;52.52
70246;SHT30;57637;49.272;8.590;2023-09-19T11:36:09;23.60;52.75
70246;SHT30;57637;49.272;8.590;2023-09-19T11:46:34;23.95;51.91
70246;SHT30;57637;49.272;8.590;2023-09-19T11:49:16;24.19;51.82
70246;SHT30;57637;49.272;8.590;2023-09-19T11:51:48;24.25;51.68
70246;SHT30;57637;49.272;8.590;2023-09-19T11:54:16;24.01;51.31
70246;SHT30;57637;49.272;8.590;2023-09-19T11:56:50;24.37;50.98
70246;SHT30;57637;49.272;8.590;2023-09-19T11:59:19;24.19;50.86
70246;SHT30;57637;49.272;8.590;2023-09-19T12:02:03;24.11;49.29
70246;SHT30;57637;49.272;8.590;2023-09-19T12:04:37;24.04;49.21
70246;SHT30;57637;49.272;8.590;2023-09-19T12:07:12;24.19;50.42
70246;SHT30;57637;49.272;8.590;2023-09-19T12:09:45;24.28;50.75
70246;SHT30;57637;49.272;8.590;2023-09-19T12:12:19;24.12;50.45
70246;SHT30;57637;49.272;8.590;2023-09-19T12:14:48;24.05;50.89
70246;SHT30;57637;49.272;8.590;2023-09-19T12:17:15;24.09;51.20
70246;SHT30;57637;49.272;8.590;2023-09-19T12:19:52;24.01;50.44
70246;SHT30;57637;49.272;8.590;2023-09-19T12:22:19;23.98;51.00
70246;SHT30;57637;49.272;8.590;2023-09-19T12:24:48;23.98;50.82
70246;SHT30;57637;49.272;8.590;2023-09-19T12:27:15;24.12;50.92
70246;SHT30;57637;49.272;8.590;2023-09-19T12:29:44;24.09;50.93
70246;SHT30;57637;49.272;8.590;2023-09-19T12:32:14;24.24;51.16
70246;SHT30;57637;49.272;8.590;2023-09-19T12:34:42;24.14;51.38
70246;SHT30;57637;49.272;8.590;2023-09-19T12:37:16;24.26;50.81
70246;SHT30;57637;49.272;8.590;2023-09-19T12:40:05;24.21;50.49
70246;SHT30;57637;49.272;8.590;2023-09-19T12:42:48;23.93;50.08
70246;SHT30;57637;49.272;8.590;2023-09-19T12:45:14;24.05;51.02
70246;SHT30;57637;49.272;8.590;2023-09-19T12:53:31;23.65;52.31
70246;SHT30;57637;49.272;8.590;2023-09-19T12:55:59;23.79;51.00
70246;SHT30;57637;49.272;8.590;2023-09-19T12:58:25;23.82;50.66
70246;SHT30;57637;49.272;8.590;2023-09-19T13:00:51;23.79;50.64
70246;SHT30;57637;49.272;8.590;2023-09-19T13:03:17;23.82;49.99
70246;SHT30;57637;49.272;8.590;2023-09-19T13:05:59;23.89;50.43
70246;SHT30;57637;49.272;8.590;2023-09-19T13:08:38;23.94;49.71
70246;SHT30;57637;49.272;8.590;2023-09-19T13:11:13;24.19;49.71
70246;SHT30;57637;49.272;8.590;2023-09-19T13:14:12;24.36;49.75
70246;SHT30;57637;49.272;8.590;2023-09-19T13:25:24;24.48;50.03
70246;SHT30;57637;49.272;8.590;2023-09-19T13:27:51;24.25;50.05
70246;SHT30;57637;49.272;8.590;2023-09-19T13:30:23;24.24;50.38
70246;SHT30;57637;49.272;8.590;2023-09-19T13:32:50;24.42;50.28
70246;SHT30;57637;49.272;8.590;2023-09-19T13:35:18;24.57;50.03
70246;SHT30;57637;49.272;8.590;2023-09-19T13:37:43;24.53;50.17
70246;SHT30;57637;49.272;8.590;2023-09-19T13:40:14;24.60;49.48
70246;SHT30;57637;49.272;8.590;2023-09-19T13:42:40;24.62;48.32
70246;SHT30;57637;49.272;8.590;2023-09-19T13:45:06;24.69;48.57
70246;SHT30;57637;49.272;8.590;2023-09-19T13:47:33;24.82;48.78
70246;SHT30;57637;49.272;8.590;2023-09-19T13:49:59;24.80;48.97
70246;SHT30;57637;49.272;8.590;2023-09-19T13:52:25;24.90;49.01
70246;SHT30;57637;49.272;8.590;2023-09-19T13:54:53;24.55;49.45
70246;SHT30;57637;49.272;8.590;2023-09-19T13:57:19;24.73;48.85
70246;SHT30;57637;49.272;8.590;2023-09-19T13:59:44;24.80;48.66
70246;SHT30;57637;49.272;8.590;2023-09-19T14:02:10;24.67;49.35
70246;SHT30;57637;49.272;8.590;2023-09-19T14:04:35;25.02;49.42
70246;SHT30;57637;49.272;8.590;2023-09-19T14:07:01;24.80;48.18
70246;SHT30;57637;49.272;8.590;2023-09-19T14:09:27;24.83;48.18
70246;SHT30;57637;49.272;8.590;2023-09-19T14:11:52;24.63;48.49
70246;SHT30;57637;49.272;8.590;2023-09-19T14:14:21;24.46;48.70
70246;SHT30;57637;49.272;8.590;2023-09-19T14:16:49;24.49;49.13
70246;SHT30;57637;49.272;8.590;2023-09-19T14:19:17;24.55;49.57
70246;SHT30;57637;49.272;8.590;2023-09-19T14:21:42;24.56;49.65
70246;SHT30;57637;49.272;8.590;2023-09-19T14:24:08;24.51;49.85
70246;SHT30;57637;49.272;8.590;2023-09-19T14:26:37;24.72;49.40
70246;SHT30;57637;49.272;8.590;2023-09-19T14:29:03;24.55;49.88
70246;SHT30;57637;49.272;8.590;2023-09-19T14:31:29;24.43;50.32
70246;SHT30;57637;49.272;8.590;2023-09-19T14:33:55;24.51;50.14
70246;SHT30;57637;49.272;8.590;2023-09-19T14:36:24;24.45;49.83
70246;SHT30;57637;49.272;8.590;2023-09-19T14:38:53;24.45;49.65
70246;SHT30;57637;49.272;8.590;2023-09-19T14:41:20;24.39;49.62
70246;SHT30;57637;49.272;8.590;2023-09-19T14:43:46;24.30;50.02
70246;SHT30;57637;49.272;8.590;2023-09-19T14:46:11;24.28;50.14
70246;SHT30;57637;49.272;8.590;2023-09-19T14:48:37;24.25;50.53
70246;SHT30;57637;49.272;8.590;2023-09-19T14:51:03;24.39;50.98
70246;SHT30;57637;49.272;8.590;2023-09-19T14:53:29;24.28;50.50
70246;SHT30;57637;49.272;8.590;2023-09-19T14:55:55;24.25;50.72
70246;SHT30;57637;49.272;8.590;2023-09-19T14:58:21;24.14;51.43
70246;SHT30;57637;49.272;8.590;2023-09-19T15:00:47;24.09;51.50
70246;SHT30;57637;49.272;8.590;2023-09-19T15:03:12;24.11;51.81
70246;SHT30;57637;49.272;8.590;2023-09-19T15:05:40;24.05;51.95
70246;SHT30;57637;49.272;8.590;2023-09-19T15:08:06;24.18;52.15
70246;SHT30;57637;49.272;8.590;2023-09-19T15:10:31;24.28;51.71
70246;SHT30;57637;49.272;8.590;2023-09-19T15:12:57;24.09;51.86
70246;SHT30;57637;49.272;8.590;2023-09-19T15:15:22;24.05;52.48
70246;SHT30;57637;49.272;8.590;2023-09-19T15:17:48;24.06;52.58
70246;SHT30;57637;49.272;8.590;2023-09-19T15:20:13;24.02;53.19
70246;SHT30;57637;49.272;8.590;2023-09-19T15:22:39;24.01;52.76
70246;SHT30;57637;49.272;8.590;2023-09-19T15:25:04;23.91;53.55
70246;SHT30;57637;49.272;8.590;2023-09-19T15:27:31;23.89;53.48
70246;SHT30;57637;49.272;8.590;2023-09-19T15:29:57;23.86;53.58
70246;SHT30;57637;49.272;8.590;2023-09-19T15:32:24;23.82;53.82
70246;SHT30;57637;49.272;8.590;2023-09-19T15:34:50;23.85;53.52
70246;SHT30;57637;49.272;8.590;2023-09-19T15:37:15;23.86;53.72
70246;SHT30;57637;49.272;8.590;2023-09-19T15:39:41;23.81;53.93
70246;SHT30;57637;49.272;8.590;2023-09-19T15:42:11;23.78;54.51
70246;SHT30;57637;49.272;8.590;2023-09-19T15:44:36;23.77;54.66
70246;SHT30;57637;49.272;8.590;2023-09-19T15:47:03;23.68;54.53
70246;SHT30;57637;49.272;8.590;2023-09-19T15:49:29;23.63;54.66
70246;SHT30;57637;49.272;8.590;2023-09-19T15:51:54;23.68;55.17
70246;SHT30;57637;49.272;8.590;2023-09-19T15:54:20;23.58;54.81
70246;SHT30;57637;49.272;8.590;2023-09-19T15:56:46;23.55;54.81
70246;SHT30;57637;49.272;8.590;2023-09-19T15:59:12;23.57;54.81
70246;SHT30;57637;49.272;8.590;2023-09-19T16:01:38;23.55;55.29
70246;SHT30;57637;49.272;8.590;2023-09-19T16:04:08;23.53;55.23
70246;SHT30;57637;49.272;8.590;2023-09-19T16:06:34;23.36;55.07
70246;SHT30;57637;49.272;8.590;2023-09-19T16:09:00;23.31;55.53
70246;SHT30;57637;49.272;8.590;2023-09-19T16:11:28;23.34;56.05
70246;SHT30;57637;49.272;8.590;2023-09-19T16:13:55;23.34;56.16
70246;SHT30;57637;49.272;8.590;2023-09-19T16:16:21;23.30;55.75
70246;SHT30;57637;49.272;8.590;2023-09-19T16:21:14;23.34;55.76
70246;SHT30;57637;49.272;8.590;2023-09-19T16:23:40;23.33;55.75
70246;SHT30;57637;49.272;8.590;2023-09-19T16:26:06;23.30;56.00
70246;SHT30;57637;49.272;8.590;2023-09-19T16:28:34;23.26;56.05
70246;SHT30;57637;49.272;8.590;2023-09-19T16:31:01;23.20;56.35
70246;SHT30;57637;49.272;8.590;2023-09-19T16:33:38;23.20;56.38
70246;SHT30;57637;49.272;8.590;2023-09-19T16:36:15;23.09;56.80
70246;SHT30;57637;49.272;8.590;2023-09-19T16:38:43;23.13;56.76
70246;SHT30;57637;49.272;8.590;2023-09-19T16:41:11;23.06;56.69
70246;SHT30;57637;49.272;8.590;2023-09-19T16:43:38;23.03;56.94
70246;SHT30;57637;49.272;8.590;2023-09-19T16:46:04;22.92;57.28
70246;SHT30;57637;49.272;8.590;2023-09-19T16:48:33;22.76;57.61
70246;SHT30;57637;49.272;8.590;2023-09-19T16:51:07;22.73;56.96
70246;SHT30;57637;49.272;8.590;2023-09-19T16:53:35;22.72;57.66
70246;SHT30;57637;49.272;8.590;2023-09-19T16:56:04;22.59;57.38